sensor_id;sensor_type;location;lat;lon;timestamp;P1;durP1;ratioP1;P2;durP2;ratioP2
27977;SDS011;15314;49.248;6.968;2022-07-23T00:00:18;13.43;;;12.23;;
27977;SDS011;15314;49.248;6.968;2022-07-23T00:01:20;12.98;;;11.98;;
27977;SDS011;15314;49.248;6.968;2022-07-23T00:02:21;12.38;;;11.48;;
27977;SDS011;15314;49.248;6.968;2022-07-23T00:03:22;13.85;;;12.75;;
27977;SDS011;15314;49.248;6.968;2022-07-23T00:04:23;14.13;;;12.70;;
27977;SDS011;15314;49.248;6.968;2022-07-23T00:05:23;12.85;;;11.90;;
27977;SDS011;15314;49.248;6.968;2022-07-23T00:06:24;13.52;;;12.07;;
27977;SDS011;15314;49.248;6.968;2022-07-23T00:07:25;13.50;;;12.50;;
27977;SDS011;15314;49.248;6.968;2022-07-23T00:08:26;12.73;;;11.75;;
27977;SDS011;15314;49.248;6.968;2022-07-23T00:09:26;14.15;;;12.80;;
27977;SDS011;15314;49.248;6.968;2022-07-23T00:10:28;13.98;;;12.65;;
27977;SDS011;15314;49.248;6.968;2022-07-23T00:11:29;14.30;;;13.20;;
27977;SDS011;15314;49.248;6.968;2022-07-23T00:12:29;13.73;;;12.57;;
27977;SDS011;15314;49.248;6.968;2022-07-23T00:13:30;13.85;;;12.60;;
27977;SDS011;15314;49.248;6.968;2022-07-23T00:14:31;14.43;;;13.32;;
27977;SDS011;15314;49.248;6.968;2022-07-23T00:15:31;14.95;;;13.52;;
27977;SDS011;15314;49.248;6.968;2022-07-23T00:16:32;13.93;;;12.60;;
27977;SDS011;15314;49.248;6.968;2022-07-23T00:17:33;14.20;;;12.90;;
27977;SDS011;15314;49.248;6.968;2022-07-23T00:18:34;14.45;;;13.00;;
27977;SDS011;15314;49.248;6.968;2022-07-23T00:19:34;13.18;;;11.90;;
27977;SDS011;15314;49.248;6.968;2022-07-23T00:20:35;13.65;;;12.65;;
27977;SDS011;15314;49.248;6.968;2022-07-23T00:21:35;13.38;;;12.30;;
27977;SDS011;15314;49.248;6.968;2022-07-23T00:22:36;13.73;;;12.73;;
27977;SDS011;15314;49.248;6.968;2022-07-23T00:23:45;14.05;;;12.82;;
27977;SDS011;15314;49.248;6.968;2022-07-23T00:24:45;13.77;;;12.55;;
27977;SDS011;15314;49.248;6.968;2022-07-23T00:25:46;13.82;;;12.48;;
27977;SDS011;15314;49.248;6.968;2022-07-23T00:26:47;14.55;;;13.30;;
27977;SDS011;15314;49.248;6.968;2022-07-23T00:27:47;14.05;;;12.85;;
27977;SDS011;15314;49.248;6.968;2022-07-23T00:28:48;14.32;;;13.13;;
27977;SDS011;15314;49.248;6.968;2022-07-23T00:29:49;15.65;;;14.38;;
27977;SDS011;15314;49.248;6.968;2022-07-23T00:30:49;16.25;;;14.85;;
27977;SDS011;15314;49.248;6.968;2022-07-23T00:31:50;16.55;;;15.00;;
27977;SDS011;15314;49.248;6.968;2022-07-23T00:33:01;15.40;;;13.98;;
27977;SDS011;15314;49.248;6.968;2022-07-23T00:34:03;15.65;;;13.75;;
27977;SDS011;15314;49.248;6.968;2022-07-23T00:35:04;13.98;;;12.77;;
27977;SDS011;15314;49.248;6.968;2022-07-23T00:36:05;16.40;;;13.27;;
27977;SDS011;15314;49.248;6.968;2022-07-23T00:37:06;14.73;;;13.57;;
27977;SDS011;15314;49.248;6.968;2022-07-23T00:38:07;13.40;;;12.40;;
27977;SDS011;15314;49.248;6.968;2022-07-23T00:39:09;13.93;;;12.63;;
27977;SDS011;15314;49.248;6.968;2022-07-23T00:40:10;14.52;;;13.32;;
27977;SDS011;15314;49.248;6.968;2022-07-23T00:41:11;14.18;;;12.98;;
27977;SDS011;15314;49.248;6.968;2022-07-23T00:42:12;14.13;;;12.90;;
27977;SDS011;15314;49.248;6.968;2022-07-23T00:43:12;13.98;;;12.80;;
27977;SDS011;15314;49.248;6.968;2022-07-23T00:44:16;14.02;;;12.88;;
27977;SDS011;15314;49.248;6.968;2022-07-23T00:45:19;14.15;;;12.95;;
27977;SDS011;15314;49.248;6.968;2022-07-23T00:46:20;15.32;;;13.98;;
27977;SDS011;15314;49.248;6.968;2022-07-23T00:47:25;14.45;;;13.30;;
27977;SDS011;15314;49.248;6.968;2022-07-23T00:48:26;15.60;;;14.20;;
27977;SDS011;15314;49.248;6.968;2022-07-23T00:49:27;14.73;;;13.73;;
27977;SDS011;15314;49.248;6.968;2022-07-23T00:50:29;15.23;;;13.93;;
27977;SDS011;15314;49.248;6.968;2022-07-23T00:51:30;14.35;;;13.15;;
27977;SDS011;15314;49.248;6.968;2022-07-23T00:52:31;13.57;;;12.60;;
27977;SDS011;15314;49.248;6.968;2022-07-23T00:53:32;14.50;;;13.38;;
27977;SDS011;15314;49.248;6.968;2022-07-23T00:54:33;14.52;;;13.30;;
27977;SDS011;15314;49.248;6.968;2022-07-23T00:55:34;15.50;;;14.15;;
27977;SDS011;15314;49.248;6.968;2022-07-23T00:56:35;14.25;;;12.98;;
27977;SDS011;15314;49.248;6.968;2022-07-23T00:57:36;14.93;;;13.70;;
27977;SDS011;15314;49.248;6.968;2022-07-23T00:58:38;14.60;;;13.13;;
27977;SDS011;15314;49.248;6.968;2022-07-23T00:59:42;13.68;;;12.50;;
27977;SDS011;15314;49.248;6.968;2022-07-23T01:00:43;15.35;;;14.15;;
27977;SDS011;15314;49.248;6.968;2022-07-23T01:01:44;14.80;;;13.50;;
27977;SDS011;15314;49.248;6.968;2022-07-23T01:02:45;16.80;;;15.18;;
27977;SDS011;15314;49.248;6.968;2022-07-23T01:03:46;15.68;;;14.57;;
27977;SDS011;15314;49.248;6.968;2022-07-23T01:04:46;15.90;;;14.43;;
27977;SDS011;15314;49.248;6.968;2022-07-23T01:05:47;15.93;;;14.30;;
27977;SDS011;15314;49.248;6.968;2022-07-23T01:06:48;15.65;;;14.38;;
27977;SDS011;15314;49.248;6.968;2022-07-23T01:07:49;17.45;;;16.02;;
27977;SDS011;15314;49.248;6.968;2022-07-23T01:08:51;16.23;;;14.68;;
27977;SDS011;15314;49.248;6.968;2022-07-23T01:09:53;16.45;;;15.00;;
27977;SDS011;15314;49.248;6.968;2022-07-23T01:10:55;15.38;;;13.98;;
27977;SDS011;15314;49.248;6.968;2022-07-23T01:11:56;15.93;;;14.40;;
27977;SDS011;15314;49.248;6.968;2022-07-23T01:12:59;15.95;;;14.43;;
27977;SDS011;15314;49.248;6.968;2022-07-23T01:14:14;15.77;;;14.43;;
27977;SDS011;15314;49.248;6.968;2022-07-23T01:15:16;16.67;;;15.07;;
27977;SDS011;15314;49.248;6.968;2022-07-23T01:16:17;17.08;;;15.50;;
27977;SDS011;15314;49.248;6.968;2022-07-23T01:17:18;16.20;;;14.80;;
27977;SDS011;15314;49.248;6.968;2022-07-23T01:18:18;15.40;;;14.00;;
27977;SDS011;15314;49.248;6.968;2022-07-23T01:19:19;17.42;;;15.43;;
27977;SDS011;15314;49.248;6.968;2022-07-23T01:20:20;15.68;;;14.20;;
27977;SDS011;15314;49.248;6.968;2022-07-23T01:21:21;15.43;;;13.98;;
27977;SDS011;15314;49.248;6.968;2022-07-23T01:22:22;15.88;;;14.50;;
27977;SDS011;15314;49.248;6.968;2022-07-23T01:23:28;17.15;;;15.43;;
27977;SDS011;15314;49.248;6.968;2022-07-23T01:24:29;16.33;;;14.88;;
27977;SDS011;15314;49.248;6.968;2022-07-23T01:25:30;15.55;;;14.02;;
27977;SDS011;15314;49.248;6.968;2022-07-23T01:26:31;15.90;;;14.52;;
27977;SDS011;15314;49.248;6.968;2022-07-23T01:27:31;15.18;;;14.02;;
27977;SDS011;15314;49.248;6.968;2022-07-23T01:28:32;16.63;;;15.20;;
27977;SDS011;15314;49.248;6.968;2022-07-23T01:29:33;17.75;;;15.98;;
27977;SDS011;15314;49.248;6.968;2022-07-23T01:30:33;15.95;;;14.55;;
27977;SDS011;15314;49.248;6.968;2022-07-23T01:31:34;16.52;;;15.00;;
27977;SDS011;15314;49.248;6.968;2022-07-23T01:32:34;16.52;;;15.00;;
27977;SDS011;15314;49.248;6.968;2022-07-23T01:33:35;15.98;;;14.68;;
27977;SDS011;15314;49.248;6.968;2022-07-23T01:34:36;16.38;;;14.55;;
27977;SDS011;15314;49.248;6.968;2022-07-23T01:35:36;16.52;;;14.93;;
27977;SDS011;15314;49.248;6.968;2022-07-23T01:36:37;16.35;;;14.65;;
27977;SDS011;15314;49.248;6.968;2022-07-23T01:37:38;16.67;;;15.02;;
27977;SDS011;15314;49.248;6.968;2022-07-23T01:38:38;17.30;;;15.57;;
27977;SDS011;15314;49.248;6.968;2022-07-23T01:39:39;15.35;;;14.05;;
27977;SDS011;15314;49.248;6.968;2022-07-23T01:40:40;16.27;;;14.98;;
27977;SDS011;15314;49.248;6.968;2022-07-23T01:41:40;14.80;;;13.50;;
27977;SDS011;15314;49.248;6.968;2022-07-23T01:42:41;16.20;;;14.88;;
27977;SDS011;15314;49.248;6.968;2022-07-23T01:43:41;16.83;;;15.52;;
27977;SDS011;15314;49.248;6.968;2022-07-23T01:44:42;17.42;;;15.88;;
27977;SDS011;15314;49.248;6.968;2022-07-23T01:45:43;17.85;;;16.48;;
27977;SDS011;15314;49.248;6.968;2022-07-23T01:46:44;17.55;;;15.90;;
27977;SDS011;15314;49.248;6.968;2022-07-23T01:47:45;18.23;;;16.63;;
27977;SDS011;15314;49.248;6.968;2022-07-23T01:48:46;17.40;;;16.00;;
27977;SDS011;15314;49.248;6.968;2022-07-23T01:49:47;16.30;;;14.90;;
27977;SDS011;15314;49.248;6.968;2022-07-23T01:50:47;16.42;;;14.98;;
27977;SDS011;15314;49.248;6.968;2022-07-23T01:51:48;16.60;;;15.30;;
27977;SDS011;15314;49.248;6.968;2022-07-23T01:53:01;18.38;;;16.77;;
27977;SDS011;15314;49.248;6.968;2022-07-23T01:54:02;16.85;;;15.35;;
27977;SDS011;15314;49.248;6.968;2022-07-23T01:55:02;17.27;;;15.77;;
27977;SDS011;15314;49.248;6.968;2022-07-23T01:56:03;17.60;;;16.02;;
27977;SDS011;15314;49.248;6.968;2022-07-23T01:57:05;18.13;;;16.45;;
27977;SDS011;15314;49.248;6.968;2022-07-23T01:58:06;17.15;;;15.48;;
27977;SDS011;15314;49.248;6.968;2022-07-23T01:59:06;17.70;;;16.05;;
27977;SDS011;15314;49.248;6.968;2022-07-23T02:00:07;17.80;;;16.20;;
27977;SDS011;15314;49.248;6.968;2022-07-23T02:01:08;16.85;;;15.48;;
27977;SDS011;15314;49.248;6.968;2022-07-23T02:02:09;17.30;;;15.68;;
27977;SDS011;15314;49.248;6.968;2022-07-23T02:03:10;17.63;;;16.02;;
27977;SDS011;15314;49.248;6.968;2022-07-23T02:04:10;17.25;;;15.85;;
27977;SDS011;15314;49.248;6.968;2022-07-23T02:05:11;17.95;;;16.15;;
27977;SDS011;15314;49.248;6.968;2022-07-23T02:06:12;17.40;;;15.73;;
27977;SDS011;15314;49.248;6.968;2022-07-23T02:07:13;18.05;;;16.50;;
27977;SDS011;15314;49.248;6.968;2022-07-23T02:08:13;18.00;;;16.20;;
27977;SDS011;15314;49.248;6.968;2022-07-23T02:09:14;18.17;;;16.77;;
27977;SDS011;15314;49.248;6.968;2022-07-23T02:10:15;19.33;;;17.73;;
27977;SDS011;15314;49.248;6.968;2022-07-23T02:11:16;18.13;;;16.63;;
27977;SDS011;15314;49.248;6.968;2022-07-23T02:12:17;18.35;;;16.45;;
27977;SDS011;15314;49.248;6.968;2022-07-23T02:13:17;19.23;;;17.58;;
27977;SDS011;15314;49.248;6.968;2022-07-23T02:14:18;17.80;;;16.20;;
27977;SDS011;15314;49.248;6.968;2022-07-23T02:15:19;19.30;;;16.42;;
27977;SDS011;15314;49.248;6.968;2022-07-23T02:16:20;19.38;;;17.58;;
27977;SDS011;15314;49.248;6.968;2022-07-23T02:17:21;19.90;;;16.77;;
27977;SDS011;15314;49.248;6.968;2022-07-23T02:18:21;18.67;;;17.17;;
27977;SDS011;15314;49.248;6.968;2022-07-23T02:19:22;19.83;;;18.13;;
27977;SDS011;15314;49.248;6.968;2022-07-23T02:20:23;19.00;;;17.27;;
27977;SDS011;15314;49.248;6.968;2022-07-23T02:21:23;18.17;;;16.58;;
27977;SDS011;15314;49.248;6.968;2022-07-23T02:22:24;19.48;;;17.30;;
27977;SDS011;15314;49.248;6.968;2022-07-23T02:23:25;17.88;;;16.30;;
27977;SDS011;15314;49.248;6.968;2022-07-23T02:24:25;18.65;;;17.08;;
27977;SDS011;15314;49.248;6.968;2022-07-23T02:25:26;17.58;;;16.17;;
27977;SDS011;15314;49.248;6.968;2022-07-23T02:26:27;16.65;;;15.23;;
27977;SDS011;15314;49.248;6.968;2022-07-23T02:27:27;18.02;;;16.60;;
27977;SDS011;15314;49.248;6.968;2022-07-23T02:28:28;17.17;;;15.68;;
27977;SDS011;15314;49.248;6.968;2022-07-23T02:29:29;18.35;;;16.60;;
27977;SDS011;15314;49.248;6.968;2022-07-23T02:30:29;15.70;;;14.57;;
27977;SDS011;15314;49.248;6.968;2022-07-23T02:31:30;17.48;;;16.15;;
27977;SDS011;15314;49.248;6.968;2022-07-23T02:32:31;18.42;;;16.90;;
27977;SDS011;15314;49.248;6.968;2022-07-23T02:33:32;18.67;;;17.02;;
27977;SDS011;15314;49.248;6.968;2022-07-23T02:34:33;19.35;;;17.65;;
27977;SDS011;15314;49.248;6.968;2022-07-23T02:35:34;17.80;;;16.30;;
27977;SDS011;15314;49.248;6.968;2022-07-23T02:36:34;18.42;;;16.83;;
27977;SDS011;15314;49.248;6.968;2022-07-23T02:37:35;17.27;;;15.75;;
27977;SDS011;15314;49.248;6.968;2022-07-23T02:38:35;18.20;;;16.77;;
27977;SDS011;15314;49.248;6.968;2022-07-23T02:39:36;17.38;;;15.88;;
27977;SDS011;15314;49.248;6.968;2022-07-23T02:40:37;16.73;;;15.23;;
27977;SDS011;15314;49.248;6.968;2022-07-23T02:41:37;19.63;;;17.98;;
27977;SDS011;15314;49.248;6.968;2022-07-23T02:42:38;17.50;;;16.17;;
27977;SDS011;15314;49.248;6.968;2022-07-23T02:43:39;18.60;;;17.05;;
27977;SDS011;15314;49.248;6.968;2022-07-23T02:44:39;16.85;;;15.45;;
27977;SDS011;15314;49.248;6.968;2022-07-23T02:45:40;17.55;;;16.15;;
27977;SDS011;15314;49.248;6.968;2022-07-23T02:46:41;17.33;;;16.00;;
27977;SDS011;15314;49.248;6.968;2022-07-23T02:47:41;18.35;;;16.88;;
27977;SDS011;15314;49.248;6.968;2022-07-23T02:48:42;17.38;;;15.88;;
27977;SDS011;15314;49.248;6.968;2022-07-23T02:49:43;16.77;;;15.38;;
27977;SDS011;15314;49.248;6.968;2022-07-23T02:50:43;18.35;;;16.95;;
27977;SDS011;15314;49.248;6.968;2022-07-23T02:51:44;15.85;;;14.75;;
27977;SDS011;15314;49.248;6.968;2022-07-23T02:52:44;17.38;;;16.00;;
27977;SDS011;15314;49.248;6.968;2022-07-23T02:53:45;18.23;;;16.52;;
27977;SDS011;15314;49.248;6.968;2022-07-23T02:54:46;17.55;;;16.10;;
27977;SDS011;15314;49.248;6.968;2022-07-23T02:55:46;18.45;;;16.85;;
27977;SDS011;15314;49.248;6.968;2022-07-23T02:56:47;18.73;;;17.10;;
27977;SDS011;15314;49.248;6.968;2022-07-23T02:57:48;18.33;;;16.45;;
27977;SDS011;15314;49.248;6.968;2022-07-23T02:58:48;17.73;;;16.00;;
27977;SDS011;15314;49.248;6.968;2022-07-23T02:59:49;15.88;;;14.68;;
27977;SDS011;15314;49.248;6.968;2022-07-23T03:00:49;15.85;;;14.50;;
27977;SDS011;15314;49.248;6.968;2022-07-23T03:01:50;19.13;;;17.63;;
27977;SDS011;15314;49.248;6.968;2022-07-23T03:02:51;19.33;;;17.65;;
27977;SDS011;15314;49.248;6.968;2022-07-23T03:03:52;18.55;;;16.95;;
27977;SDS011;15314;49.248;6.968;2022-07-23T03:04:52;18.40;;;16.67;;
27977;SDS011;15314;49.248;6.968;2022-07-23T03:05:53;17.55;;;16.05;;
27977;SDS011;15314;49.248;6.968;2022-07-23T03:06:54;17.88;;;16.48;;
27977;SDS011;15314;49.248;6.968;2022-07-23T03:07:54;17.73;;;16.23;;
27977;SDS011;15314;49.248;6.968;2022-07-23T03:08:55;18.52;;;17.05;;
27977;SDS011;15314;49.248;6.968;2022-07-23T03:09:55;17.20;;;15.60;;
27977;SDS011;15314;49.248;6.968;2022-07-23T03:10:56;20.33;;;18.55;;
27977;SDS011;15314;49.248;6.968;2022-07-23T03:11:57;19.92;;;18.25;;
27977;SDS011;15314;49.248;6.968;2022-07-23T03:12:57;18.55;;;17.05;;
27977;SDS011;15314;49.248;6.968;2022-07-23T03:13:58;17.13;;;15.77;;
27977;SDS011;15314;49.248;6.968;2022-07-23T03:14:59;17.90;;;16.40;;
27977;SDS011;15314;49.248;6.968;2022-07-23T03:15:59;18.40;;;16.83;;
27977;SDS011;15314;49.248;6.968;2022-07-23T03:17:00;17.58;;;15.98;;
27977;SDS011;15314;49.248;6.968;2022-07-23T03:18:01;17.65;;;16.25;;
27977;SDS011;15314;49.248;6.968;2022-07-23T03:19:01;17.30;;;15.90;;
27977;SDS011;15314;49.248;6.968;2022-07-23T03:20:02;18.70;;;16.85;;
27977;SDS011;15314;49.248;6.968;2022-07-23T03:21:03;20.05;;;18.15;;
27977;SDS011;15314;49.248;6.968;2022-07-23T03:22:04;19.08;;;17.50;;
27977;SDS011;15314;49.248;6.968;2022-07-23T03:23:05;20.63;;;18.95;;
27977;SDS011;15314;49.248;6.968;2022-07-23T03:24:07;20.65;;;18.58;;
27977;SDS011;15314;49.248;6.968;2022-07-23T03:25:09;20.27;;;18.55;;
27977;SDS011;15314;49.248;6.968;2022-07-23T03:26:10;18.25;;;16.80;;
27977;SDS011;15314;49.248;6.968;2022-07-23T03:27:10;19.77;;;18.15;;
27977;SDS011;15314;49.248;6.968;2022-07-23T03:28:11;18.75;;;16.98;;
27977;SDS011;15314;49.248;6.968;2022-07-23T03:29:12;17.60;;;16.10;;
27977;SDS011;15314;49.248;6.968;2022-07-23T03:30:12;18.90;;;16.90;;
27977;SDS011;15314;49.248;6.968;2022-07-23T03:31:13;17.92;;;16.38;;
27977;SDS011;15314;49.248;6.968;2022-07-23T03:32:13;19.15;;;17.48;;
27977;SDS011;15314;49.248;6.968;2022-07-23T03:33:15;18.52;;;16.92;;
27977;SDS011;15314;49.248;6.968;2022-07-23T03:34:16;17.45;;;15.98;;
27977;SDS011;15314;49.248;6.968;2022-07-23T03:35:18;18.90;;;17.33;;
27977;SDS011;15314;49.248;6.968;2022-07-23T03:36:19;17.67;;;16.25;;
27977;SDS011;15314;49.248;6.968;2022-07-23T03:37:19;17.02;;;15.57;;
27977;SDS011;15314;49.248;6.968;2022-07-23T03:38:20;18.63;;;16.95;;
27977;SDS011;15314;49.248;6.968;2022-07-23T03:39:21;17.10;;;15.77;;
27977;SDS011;15314;49.248;6.968;2022-07-23T03:40:22;19.30;;;17.50;;
27977;SDS011;15314;49.248;6.968;2022-07-23T03:41:22;17.02;;;15.52;;
27977;SDS011;15314;49.248;6.968;2022-07-23T03:42:23;17.67;;;16.38;;
27977;SDS011;15314;49.248;6.968;2022-07-23T03:43:23;17.63;;;16.15;;
27977;SDS011;15314;49.248;6.968;2022-07-23T03:44:25;17.63;;;16.23;;
27977;SDS011;15314;49.248;6.968;2022-07-23T03:45:26;17.30;;;15.85;;
27977;SDS011;15314;49.248;6.968;2022-07-23T03:46:27;18.95;;;17.08;;
27977;SDS011;15314;49.248;6.968;2022-07-23T03:47:27;16.50;;;15.15;;
27977;SDS011;15314;49.248;6.968;2022-07-23T03:48:28;16.45;;;15.15;;
27977;SDS011;15314;49.248;6.968;2022-07-23T03:49:29;16.70;;;15.50;;
27977;SDS011;15314;49.248;6.968;2022-07-23T03:50:30;18.10;;;16.10;;
27977;SDS011;15314;49.248;6.968;2022-07-23T03:51:30;17.00;;;15.60;;
27977;SDS011;15314;49.248;6.968;2022-07-23T03:52:32;17.90;;;16.25;;
27977;SDS011;15314;49.248;6.968;2022-07-23T03:53:32;17.55;;;16.20;;
27977;SDS011;15314;49.248;6.968;2022-07-23T03:54:33;17.65;;;16.20;;
27977;SDS011;15314;49.248;6.968;2022-07-23T03:55:34;16.98;;;15.48;;
27977;SDS011;15314;49.248;6.968;2022-07-23T03:56:34;20.42;;;18.85;;
27977;SDS011;15314;49.248;6.968;2022-07-23T03:57:35;18.17;;;16.77;;
27977;SDS011;15314;49.248;6.968;2022-07-23T03:58:36;17.60;;;16.08;;
27977;SDS011;15314;49.248;6.968;2022-07-23T03:59:36;19.83;;;18.15;;
27977;SDS011;15314;49.248;6.968;2022-07-23T04:00:37;18.27;;;16.00;;
27977;SDS011;15314;49.248;6.968;2022-07-23T04:01:38;15.98;;;14.60;;
27977;SDS011;15314;49.248;6.968;2022-07-23T04:02:38;16.00;;;14.60;;
27977;SDS011;15314;49.248;6.968;2022-07-23T04:03:39;16.67;;;15.30;;
27977;SDS011;15314;49.248;6.968;2022-07-23T04:04:40;20.10;;;18.33;;
27977;SDS011;15314;49.248;6.968;2022-07-23T04:05:40;19.50;;;17.52;;
27977;SDS011;15314;49.248;6.968;2022-07-23T04:06:41;16.40;;;15.00;;
27977;SDS011;15314;49.248;6.968;2022-07-23T04:07:42;17.95;;;16.50;;
27977;SDS011;15314;49.248;6.968;2022-07-23T04:08:42;17.13;;;15.52;;
27977;SDS011;15314;49.248;6.968;2022-07-23T04:09:43;18.63;;;16.90;;
27977;SDS011;15314;49.248;6.968;2022-07-23T04:10:44;16.80;;;15.35;;
27977;SDS011;15314;49.248;6.968;2022-07-23T04:11:44;17.52;;;16.05;;
27977;SDS011;15314;49.248;6.968;2022-07-23T04:12:45;16.73;;;15.35;;
27977;SDS011;15314;49.248;6.968;2022-07-23T04:13:46;17.13;;;15.63;;
27977;SDS011;15314;49.248;6.968;2022-07-23T04:14:46;17.92;;;16.42;;
27977;SDS011;15314;49.248;6.968;2022-07-23T04:15:47;18.05;;;16.30;;
27977;SDS011;15314;49.248;6.968;2022-07-23T04:16:48;17.25;;;15.70;;
27977;SDS011;15314;49.248;6.968;2022-07-23T04:17:48;17.20;;;15.48;;
27977;SDS011;15314;49.248;6.968;2022-07-23T04:18:49;17.38;;;15.98;;
27977;SDS011;15314;49.248;6.968;2022-07-23T04:19:49;18.85;;;17.25;;
27977;SDS011;15314;49.248;6.968;2022-07-23T04:20:50;18.58;;;16.80;;
27977;SDS011;15314;49.248;6.968;2022-07-23T04:21:52;17.08;;;15.77;;
27977;SDS011;15314;49.248;6.968;2022-07-23T04:22:52;17.38;;;15.98;;
27977;SDS011;15314;49.248;6.968;2022-07-23T04:23:53;19.27;;;17.52;;
27977;SDS011;15314;49.248;6.968;2022-07-23T04:24:54;17.95;;;16.25;;
27977;SDS011;15314;49.248;6.968;2022-07-23T04:25:54;20.00;;;18.45;;
27977;SDS011;15314;49.248;6.968;2022-07-23T04:26:55;18.38;;;17.00;;
27977;SDS011;15314;49.248;6.968;2022-07-23T04:27:55;17.67;;;16.20;;
27977;SDS011;15314;49.248;6.968;2022-07-23T04:28:56;19.23;;;17.45;;
27977;SDS011;15314;49.248;6.968;2022-07-23T04:29:57;18.30;;;16.75;;
27977;SDS011;15314;49.248;6.968;2022-07-23T04:30:57;19.40;;;17.70;;
27977;SDS011;15314;49.248;6.968;2022-07-23T04:31:58;18.58;;;16.98;;
27977;SDS011;15314;49.248;6.968;2022-07-23T04:32:59;19.52;;;17.98;;
27977;SDS011;15314;49.248;6.968;2022-07-23T04:34:00;18.25;;;16.75;;
27977;SDS011;15314;49.248;6.968;2022-07-23T04:35:00;19.08;;;17.02;;
27977;SDS011;15314;49.248;6.968;2022-07-23T04:36:01;18.70;;;16.95;;
27977;SDS011;15314;49.248;6.968;2022-07-23T04:37:02;19.13;;;17.73;;
27977;SDS011;15314;49.248;6.968;2022-07-23T04:38:03;18.25;;;16.42;;
27977;SDS011;15314;49.248;6.968;2022-07-23T04:39:04;20.42;;;18.50;;
27977;SDS011;15314;49.248;6.968;2022-07-23T04:40:05;23.38;;;20.90;;
27977;SDS011;15314;49.248;6.968;2022-07-23T04:41:06;19.20;;;17.55;;
27977;SDS011;15314;49.248;6.968;2022-07-23T04:42:06;21.23;;;19.48;;
27977;SDS011;15314;49.248;6.968;2022-07-23T04:43:07;22.38;;;20.23;;
27977;SDS011;15314;49.248;6.968;2022-07-23T04:44:07;21.38;;;19.23;;
27977;SDS011;15314;49.248;6.968;2022-07-23T04:45:08;21.77;;;19.70;;
27977;SDS011;15314;49.248;6.968;2022-07-23T04:46:09;20.98;;;18.23;;
27977;SDS011;15314;49.248;6.968;2022-07-23T04:47:10;21.73;;;19.83;;
27977;SDS011;15314;49.248;6.968;2022-07-23T04:48:11;22.45;;;20.10;;
27977;SDS011;15314;49.248;6.968;2022-07-23T04:49:12;21.50;;;19.40;;
27977;SDS011;15314;49.248;6.968;2022-07-23T04:50:12;22.90;;;20.48;;
27977;SDS011;15314;49.248;6.968;2022-07-23T04:51:17;23.77;;;21.42;;
27977;SDS011;15314;49.248;6.968;2022-07-23T04:52:18;22.48;;;20.30;;
27977;SDS011;15314;49.248;6.968;2022-07-23T04:53:18;24.77;;;21.23;;
27977;SDS011;15314;49.248;6.968;2022-07-23T04:54:19;21.63;;;19.40;;
27977;SDS011;15314;49.248;6.968;2022-07-23T04:55:20;21.30;;;19.50;;
27977;SDS011;15314;49.248;6.968;2022-07-23T04:56:21;23.08;;;20.98;;
27977;SDS011;15314;49.248;6.968;2022-07-23T04:57:22;23.02;;;21.02;;
27977;SDS011;15314;49.248;6.968;2022-07-23T04:58:23;21.95;;;20.00;;
27977;SDS011;15314;49.248;6.968;2022-07-23T04:59:23;21.83;;;19.60;;
27977;SDS011;15314;49.248;6.968;2022-07-23T05:00:25;23.25;;;21.10;;
27977;SDS011;15314;49.248;6.968;2022-07-23T05:01:25;21.50;;;19.65;;
27977;SDS011;15314;49.248;6.968;2022-07-23T05:02:26;21.35;;;19.55;;
27977;SDS011;15314;49.248;6.968;2022-07-23T05:03:27;24.00;;;21.70;;
27977;SDS011;15314;49.248;6.968;2022-07-23T05:04:28;20.33;;;18.63;;
27977;SDS011;15314;49.248;6.968;2022-07-23T05:05:28;20.25;;;18.63;;
27977;SDS011;15314;49.248;6.968;2022-07-23T05:06:29;21.58;;;19.67;;
27977;SDS011;15314;49.248;6.968;2022-07-23T05:07:30;20.10;;;18.15;;
27977;SDS011;15314;49.248;6.968;2022-07-23T05:08:30;21.50;;;19.60;;
27977;SDS011;15314;49.248;6.968;2022-07-23T05:09:34;23.90;;;21.45;;
27977;SDS011;15314;49.248;6.968;2022-07-23T05:10:35;22.70;;;19.45;;
27977;SDS011;15314;49.248;6.968;2022-07-23T05:11:35;19.85;;;18.25;;
27977;SDS011;15314;49.248;6.968;2022-07-23T05:12:36;20.23;;;18.40;;
27977;SDS011;15314;49.248;6.968;2022-07-23T05:13:37;18.75;;;17.08;;
27977;SDS011;15314;49.248;6.968;2022-07-23T05:14:37;19.90;;;18.20;;
27977;SDS011;15314;49.248;6.968;2022-07-23T05:15:38;23.15;;;21.17;;
27977;SDS011;15314;49.248;6.968;2022-07-23T05:16:39;21.48;;;19.50;;
27977;SDS011;15314;49.248;6.968;2022-07-23T05:17:39;18.70;;;16.80;;
27977;SDS011;15314;49.248;6.968;2022-07-23T05:18:40;22.00;;;19.98;;
27977;SDS011;15314;49.248;6.968;2022-07-23T05:19:41;24.70;;;22.05;;
27977;SDS011;15314;49.248;6.968;2022-07-23T05:20:41;22.98;;;20.88;;
27977;SDS011;15314;49.248;6.968;2022-07-23T05:21:42;22.95;;;20.60;;
27977;SDS011;15314;49.248;6.968;2022-07-23T05:22:43;21.80;;;19.80;;
27977;SDS011;15314;49.248;6.968;2022-07-23T05:23:43;21.38;;;19.63;;
27977;SDS011;15314;49.248;6.968;2022-07-23T05:24:44;23.33;;;21.33;;
27977;SDS011;15314;49.248;6.968;2022-07-23T05:25:44;25.58;;;23.05;;
27977;SDS011;15314;49.248;6.968;2022-07-23T05:26:45;21.33;;;19.52;;
27977;SDS011;15314;49.248;6.968;2022-07-23T05:27:46;23.33;;;21.20;;
27977;SDS011;15314;49.248;6.968;2022-07-23T05:28:46;23.00;;;20.88;;
27977;SDS011;15314;49.248;6.968;2022-07-23T05:29:47;23.20;;;20.95;;
27977;SDS011;15314;49.248;6.968;2022-07-23T05:30:47;22.08;;;20.10;;
27977;SDS011;15314;49.248;6.968;2022-07-23T05:31:48;22.70;;;20.70;;
27977;SDS011;15314;49.248;6.968;2022-07-23T05:32:49;23.48;;;21.48;;
27977;SDS011;15314;49.248;6.968;2022-07-23T05:33:49;21.25;;;19.55;;
27977;SDS011;15314;49.248;6.968;2022-07-23T05:34:50;23.27;;;21.38;;
27977;SDS011;15314;49.248;6.968;2022-07-23T05:35:51;22.02;;;20.25;;
27977;SDS011;15314;49.248;6.968;2022-07-23T05:36:51;22.23;;;20.15;;
27977;SDS011;15314;49.248;6.968;2022-07-23T05:37:52;26.25;;;21.42;;
27977;SDS011;15314;49.248;6.968;2022-07-23T05:38:52;22.25;;;20.40;;
27977;SDS011;15314;49.248;6.968;2022-07-23T05:39:53;22.38;;;20.40;;
27977;SDS011;15314;49.248;6.968;2022-07-23T05:40:54;22.08;;;19.90;;
27977;SDS011;15314;49.248;6.968;2022-07-23T05:41:54;22.02;;;19.90;;
27977;SDS011;15314;49.248;6.968;2022-07-23T05:42:55;21.65;;;19.65;;
27977;SDS011;15314;49.248;6.968;2022-07-23T05:43:56;21.13;;;18.90;;
27977;SDS011;15314;49.248;6.968;2022-07-23T05:44:57;19.83;;;18.15;;
27977;SDS011;15314;49.248;6.968;2022-07-23T05:45:57;23.20;;;19.80;;
27977;SDS011;15314;49.248;6.968;2022-07-23T05:46:58;18.52;;;17.02;;
27977;SDS011;15314;49.248;6.968;2022-07-23T05:47:59;18.95;;;17.30;;
27977;SDS011;15314;49.248;6.968;2022-07-23T05:48:59;19.98;;;18.02;;
27977;SDS011;15314;49.248;6.968;2022-07-23T05:50:00;23.13;;;20.98;;
27977;SDS011;15314;49.248;6.968;2022-07-23T05:51:00;19.75;;;18.05;;
27977;SDS011;15314;49.248;6.968;2022-07-23T05:52:04;19.27;;;17.70;;
27977;SDS011;15314;49.248;6.968;2022-07-23T05:53:05;26.50;;;24.00;;
27977;SDS011;15314;49.248;6.968;2022-07-23T05:54:06;25.52;;;23.25;;
27977;SDS011;15314;49.248;6.968;2022-07-23T05:55:07;23.42;;;21.25;;
27977;SDS011;15314;49.248;6.968;2022-07-23T05:56:11;23.67;;;20.13;;